Terminal Aerodrome Forecast
Issued by NWS Springfield, MO

Home | Current Version | Previous Version | Text Only | Print | Product List | Glossary On
Versions: 1 2 3 4 5 6 7 8 9 10 11 12 13 14 15 16 17
068
FTUS43 KSGF 141213 AAA
TAFSGF
TAF AMD
KSGF 141213Z 1412/1512 14015G23KT P6SM OVC025
      TEMPO 1412/1413 -FZRAPL OVC015
     FM141600 15010KT P6SM OVC015
     FM142100 22007KT P6SM OVC025
     FM150000 VRB04KT P6SM OVC250
     FM150700 16005KT 4SM BR SCT250=

USA.gov is the U.S. government's official web portal to all federal, state and local government web resources and services.